sensor_id;sensor_type;location;lat;lon;timestamp;pressure;altitude;pressure_sealevel;temperature;humidity
76808;BME280;65758;45.458;11.062;2023-02-11T00:00:39;103086.84;;;2.29;45.45
76808;BME280;65758;45.458;11.062;2023-02-11T00:03:06;103088.95;;;2.32;45.56
76808;BME280;65758;45.458;11.062;2023-02-11T00:05:34;103082.59;;;2.32;44.84
76808;BME280;65758;45.458;11.062;2023-02-11T00:08:00;103084.31;;;2.33;44.73
76808;BME280;65758;45.458;11.062;2023-02-11T00:10:27;103081.40;;;2.34;44.53
76808;BME280;65758;45.458;11.062;2023-02-11T00:12:54;103080.43;;;2.35;44.59
76808;BME280;65758;45.458;11.062;2023-02-11T00:15:21;103079.38;;;2.34;44.67
76808;BME280;65758;45.458;11.062;2023-02-11T00:17:48;103081.40;;;2.34;44.44
76808;BME280;65758;45.458;11.062;2023-02-11T00:20:15;103086.93;;;2.32;44.37
76808;BME280;65758;45.458;11.062;2023-02-11T00:22:41;103091.54;;;2.31;43.98
76808;BME280;65758;45.458;11.062;2023-02-11T00:25:09;103096.02;;;2.29;43.96
76808;BME280;65758;45.458;11.062;2023-02-11T00:27:36;103086.39;;;2.28;44.08
76808;BME280;65758;45.458;11.062;2023-02-11T00:30:04;103086.17;;;2.28;43.70
76808;BME280;65758;45.458;11.062;2023-02-11T00:32:31;103089.06;;;2.28;43.57
76808;BME280;65758;45.458;11.062;2023-02-11T00:34:58;103089.23;;;2.26;44.22
76808;BME280;65758;45.458;11.062;2023-02-11T00:37:25;103083.92;;;2.20;44.23
76808;BME280;65758;45.458;11.062;2023-02-11T00:39:51;103080.76;;;2.12;44.40
76808;BME280;65758;45.458;11.062;2023-02-11T00:42:18;103078.80;;;2.04;44.75
76808;BME280;65758;45.458;11.062;2023-02-11T00:44:45;103079.54;;;1.97;45.29
76808;BME280;65758;45.458;11.062;2023-02-11T00:47:15;103077.54;;;1.89;45.72
76808;BME280;65758;45.458;11.062;2023-02-11T00:49:42;103078.84;;;1.82;45.98
76808;BME280;65758;45.458;11.062;2023-02-11T00:52:09;103076.90;;;1.76;45.98
76808;BME280;65758;45.458;11.062;2023-02-11T00:54:36;103073.34;;;1.71;46.08
76808;BME280;65758;45.458;11.062;2023-02-11T00:57:03;103072.63;;;1.68;46.05
76808;BME280;65758;45.458;11.062;2023-02-11T00:59:30;103072.75;;;1.64;46.31
76808;BME280;65758;45.458;11.062;2023-02-11T01:01:56;103071.64;;;1.60;46.45
76808;BME280;65758;45.458;11.062;2023-02-11T01:04:26;103071.88;;;1.57;46.56
76808;BME280;65758;45.458;11.062;2023-02-11T01:06:52;103073.61;;;1.55;46.91
76808;BME280;65758;45.458;11.062;2023-02-11T01:09:19;103069.34;;;1.55;47.03
76808;BME280;65758;45.458;11.062;2023-02-11T01:11:46;103073.02;;;1.51;46.99
76808;BME280;65758;45.458;11.062;2023-02-11T01:14:13;103073.00;;;1.46;47.32
76808;BME280;65758;45.458;11.062;2023-02-11T01:16:41;103072.95;;;1.42;47.54
76808;BME280;65758;45.458;11.062;2023-02-11T01:19:08;103081.12;;;1.38;47.37
76808;BME280;65758;45.458;11.062;2023-02-11T01:21:35;103079.06;;;1.34;47.41
76808;BME280;65758;45.458;11.062;2023-02-11T01:24:02;103074.77;;;1.32;47.32
76808;BME280;65758;45.458;11.062;2023-02-11T01:26:28;103071.19;;;1.29;47.27
76808;BME280;65758;45.458;11.062;2023-02-11T01:28:56;103071.50;;;1.25;47.27
76808;BME280;65758;45.458;11.062;2023-02-11T01:31:26;103073.01;;;1.24;47.37
76808;BME280;65758;45.458;11.062;2023-02-11T01:33:53;103075.14;;;1.24;47.45
76808;BME280;65758;45.458;11.062;2023-02-11T01:36:20;103072.98;;;1.24;47.32
76808;BME280;65758;45.458;11.062;2023-02-11T01:38:46;103077.19;;;1.23;47.44
76808;BME280;65758;45.458;11.062;2023-02-11T01:41:18;103076.89;;;1.22;47.64
76808;BME280;65758;45.458;11.062;2023-02-11T01:43:47;103074.07;;;1.22;47.84
76808;BME280;65758;45.458;11.062;2023-02-11T01:46:35;103065.64;;;1.19;47.84
76808;BME280;65758;45.458;11.062;2023-02-11T01:49:06;103062.32;;;1.18;48.11
76808;BME280;65758;45.458;11.062;2023-02-11T01:51:43;103062.07;;;1.16;47.92
76808;BME280;65758;45.458;11.062;2023-02-11T01:54:14;103059.41;;;1.13;48.18
76808;BME280;65758;45.458;11.062;2023-02-11T01:57:01;103059.76;;;1.11;48.14
76808;BME280;65758;45.458;11.062;2023-02-11T02:00:15;103056.08;;;1.07;48.60
76808;BME280;65758;45.458;11.062;2023-02-11T02:10:36;103054.67;;;0.96;48.62
76808;BME280;65758;45.458;11.062;2023-02-11T02:13:05;103052.29;;;0.97;48.77
76808;BME280;65758;45.458;11.062;2023-02-11T02:15:33;103058.52;;;0.98;48.83
76808;BME280;65758;45.458;11.062;2023-02-11T02:38:47;103049.13;;;0.68;49.13
76808;BME280;65758;45.458;11.062;2023-02-11T02:41:23;103044.69;;;0.67;49.19
76808;BME280;65758;45.458;11.062;2023-02-11T02:43:53;103042.65;;;0.65;49.21
76808;BME280;65758;45.458;11.062;2023-02-11T02:46:26;103042.73;;;0.62;49.46
76808;BME280;65758;45.458;11.062;2023-02-11T02:48:55;103035.08;;;0.58;49.39
76808;BME280;65758;45.458;11.062;2023-02-11T03:02:17;103027.22;;;0.45;49.48
76808;BME280;65758;45.458;11.062;2023-02-11T03:05:01;103025.58;;;0.42;49.28
76808;BME280;65758;45.458;11.062;2023-02-11T03:07:42;103020.40;;;0.39;49.66
76808;BME280;65758;45.458;11.062;2023-02-11T03:10:39;103015.59;;;0.36;49.37
76808;BME280;65758;45.458;11.062;2023-02-11T03:13:07;103017.79;;;0.33;49.33
76808;BME280;65758;45.458;11.062;2023-02-11T03:15:38;103013.02;;;0.32;49.33
76808;BME280;65758;45.458;11.062;2023-02-11T03:18:10;103007.65;;;0.29;49.50
76808;BME280;65758;45.458;11.062;2023-02-11T03:20:41;103010.41;;;0.26;49.53
76808;BME280;65758;45.458;11.062;2023-02-11T03:23:18;103013.64;;;0.23;49.77
76808;BME280;65758;45.458;11.062;2023-02-11T03:25:52;103018.70;;;0.23;49.53
76808;BME280;65758;45.458;11.062;2023-02-11T03:28:38;103009.70;;;0.20;49.68
76808;BME280;65758;45.458;11.062;2023-02-11T03:36:23;102994.92;;;0.13;49.82
76808;BME280;65758;45.458;11.062;2023-02-11T03:38:56;102997.41;;;0.14;49.74
76808;BME280;65758;45.458;11.062;2023-02-11T03:41:24;102993.33;;;0.16;49.54
76808;BME280;65758;45.458;11.062;2023-02-11T03:43:54;102993.90;;;0.15;49.80
76808;BME280;65758;45.458;11.062;2023-02-11T03:46:36;102997.81;;;0.13;49.96
76808;BME280;65758;45.458;11.062;2023-02-11T03:49:08;102992.89;;;0.09;49.73
76808;BME280;65758;45.458;11.062;2023-02-11T03:51:38;102986.86;;;0.06;49.73
76808;BME280;65758;45.458;11.062;2023-02-11T03:54:10;102986.64;;;0.04;50.13
76808;BME280;65758;45.458;11.062;2023-02-11T03:56:52;102989.10;;;0.01;50.15
76808;BME280;65758;45.458;11.062;2023-02-11T03:59:19;102987.77;;;-0.00;50.31
76808;BME280;65758;45.458;11.062;2023-02-11T04:01:46;102981.94;;;-0.02;50.06
76808;BME280;65758;45.458;11.062;2023-02-11T04:04:13;102980.64;;;-0.04;50.35
76808;BME280;65758;45.458;11.062;2023-02-11T04:06:40;102978.27;;;-0.06;50.23
76808;BME280;65758;45.458;11.062;2023-02-11T04:09:07;102980.70;;;-0.07;49.82
76808;BME280;65758;45.458;11.062;2023-02-11T04:11:34;102978.81;;;-0.09;49.84
76808;BME280;65758;45.458;11.062;2023-02-11T04:14:01;102974.63;;;-0.08;50.07
76808;BME280;65758;45.458;11.062;2023-02-11T04:16:28;102973.70;;;-0.07;50.14
76808;BME280;65758;45.458;11.062;2023-02-11T04:18:56;102972.41;;;-0.09;50.37
76808;BME280;65758;45.458;11.062;2023-02-11T04:21:23;102978.72;;;-0.10;50.22
76808;BME280;65758;45.458;11.062;2023-02-11T04:23:50;102973.39;;;-0.11;50.14
76808;BME280;65758;45.458;11.062;2023-02-11T04:26:16;102967.41;;;-0.12;50.46
76808;BME280;65758;45.458;11.062;2023-02-11T04:28:43;102968.91;;;-0.13;50.46
76808;BME280;65758;45.458;11.062;2023-02-11T04:31:10;102969.44;;;-0.16;50.41
76808;BME280;65758;45.458;11.062;2023-02-11T04:33:37;102963.08;;;-0.20;50.48
76808;BME280;65758;45.458;11.062;2023-02-11T04:36:04;102961.07;;;-0.22;50.47
76808;BME280;65758;45.458;11.062;2023-02-11T04:38:31;102958.84;;;-0.23;50.63
76808;BME280;65758;45.458;11.062;2023-02-11T04:40:57;102956.68;;;-0.26;50.45
76808;BME280;65758;45.458;11.062;2023-02-11T04:43:26;102959.57;;;-0.26;50.88
76808;BME280;65758;45.458;11.062;2023-02-11T04:45:56;102956.99;;;-0.25;50.65
76808;BME280;65758;45.458;11.062;2023-02-11T04:48:24;102957.30;;;-0.22;50.73
76808;BME280;65758;45.458;11.062;2023-02-11T04:50:51;102954.09;;;-0.22;50.57
76808;BME280;65758;45.458;11.062;2023-02-11T04:53:18;102955.70;;;-0.22;50.90
76808;BME280;65758;45.458;11.062;2023-02-11T04:55:48;102951.15;;;-0.24;51.07
76808;BME280;65758;45.458;11.062;2023-02-11T04:58:18;102949.36;;;-0.26;50.94
76808;BME280;65758;45.458;11.062;2023-02-11T05:00:45;102952.27;;;-0.30;50.96
76808;BME280;65758;45.458;11.062;2023-02-11T05:03:12;102953.02;;;-0.32;50.96
76808;BME280;65758;45.458;11.062;2023-02-11T05:05:40;102955.75;;;-0.36;50.89
76808;BME280;65758;45.458;11.062;2023-02-11T05:08:09;102955.63;;;-0.39;51.11
76808;BME280;65758;45.458;11.062;2023-02-11T05:10:36;102950.73;;;-0.42;51.30
76808;BME280;65758;45.458;11.062;2023-02-11T05:13:03;102948.49;;;-0.43;51.26
76808;BME280;65758;45.458;11.062;2023-02-11T05:15:30;102949.20;;;-0.42;51.35
76808;BME280;65758;45.458;11.062;2023-02-11T05:17:57;102953.48;;;-0.42;51.20
76808;BME280;65758;45.458;11.062;2023-02-11T05:20:24;102949.50;;;-0.44;51.05
76808;BME280;65758;45.458;11.062;2023-02-11T05:22:51;102950.16;;;-0.46;51.05
76808;BME280;65758;45.458;11.062;2023-02-11T05:25:18;102953.30;;;-0.45;51.30
76808;BME280;65758;45.458;11.062;2023-02-11T05:27:46;102953.07;;;-0.42;50.88
76808;BME280;65758;45.458;11.062;2023-02-11T05:30:13;102951.52;;;-0.40;51.17
76808;BME280;65758;45.458;11.062;2023-02-11T05:32:40;102949.78;;;-0.38;51.36
76808;BME280;65758;45.458;11.062;2023-02-11T05:35:06;102951.02;;;-0.37;51.33
76808;BME280;65758;45.458;11.062;2023-02-11T05:37:34;102954.40;;;-0.40;51.01
76808;BME280;65758;45.458;11.062;2023-02-11T05:40:01;102951.41;;;-0.43;51.35
76808;BME280;65758;45.458;11.062;2023-02-11T05:42:28;102946.79;;;-0.44;51.01
76808;BME280;65758;45.458;11.062;2023-02-11T05:44:55;102945.14;;;-0.46;51.24
76808;BME280;65758;45.458;11.062;2023-02-11T05:47:21;102946.09;;;-0.47;51.20
76808;BME280;65758;45.458;11.062;2023-02-11T05:49:49;102949.77;;;-0.49;51.44
76808;BME280;65758;45.458;11.062;2023-02-11T05:52:16;102945.11;;;-0.51;51.35
76808;BME280;65758;45.458;11.062;2023-02-11T05:54:43;102943.55;;;-0.54;51.26
76808;BME280;65758;45.458;11.062;2023-02-11T05:57:10;102946.21;;;-0.59;51.53
76808;BME280;65758;45.458;11.062;2023-02-11T05:59:37;102941.42;;;-0.63;51.81
76808;BME280;65758;45.458;11.062;2023-02-11T06:02:04;102938.89;;;-0.65;51.74
76808;BME280;65758;45.458;11.062;2023-02-11T06:04:31;102937.91;;;-0.67;51.78
76808;BME280;65758;45.458;11.062;2023-02-11T06:06:57;102938.98;;;-0.67;51.75
76808;BME280;65758;45.458;11.062;2023-02-11T06:09:25;102941.50;;;-0.67;51.89
76808;BME280;65758;45.458;11.062;2023-02-11T06:11:52;102934.89;;;-0.67;52.04
76808;BME280;65758;45.458;11.062;2023-02-11T06:14:18;102935.73;;;-0.69;51.65
76808;BME280;65758;45.458;11.062;2023-02-11T06:16:45;102941.45;;;-0.72;52.07
76808;BME280;65758;45.458;11.062;2023-02-11T06:19:12;102934.59;;;-0.73;52.00
76808;BME280;65758;45.458;11.062;2023-02-11T06:21:39;102927.52;;;-0.75;51.66
76808;BME280;65758;45.458;11.062;2023-02-11T06:24:10;102923.48;;;-0.76;52.17
76808;BME280;65758;45.458;11.062;2023-02-11T06:26:38;102925.30;;;-0.77;52.00
76808;BME280;65758;45.458;11.062;2023-02-11T06:29:05;102930.48;;;-0.77;51.88
76808;BME280;65758;45.458;11.062;2023-02-11T06:31:32;102926.55;;;-0.74;52.24
76808;BME280;65758;45.458;11.062;2023-02-11T06:33:59;102924.66;;;-0.70;52.61
76808;BME280;65758;45.458;11.062;2023-02-11T06:36:26;102924.55;;;-0.68;52.68
76808;BME280;65758;45.458;11.062;2023-02-11T06:38:53;102932.45;;;-0.66;52.42
76808;BME280;65758;45.458;11.062;2023-02-11T06:41:20;102936.17;;;-0.62;52.29
76808;BME280;65758;45.458;11.062;2023-02-11T06:43:47;102928.85;;;-0.60;52.65
76808;BME280;65758;45.458;11.062;2023-02-11T06:46:14;102932.54;;;-0.59;52.38
76808;BME280;65758;45.458;11.062;2023-02-11T06:48:41;102940.65;;;-0.57;52.76
76808;BME280;65758;45.458;11.062;2023-02-11T06:51:12;102936.58;;;-0.52;52.98
76808;BME280;65758;45.458;11.062;2023-02-11T06:53:48;102937.59;;;-0.48;53.59
76808;BME280;65758;45.458;11.062;2023-02-11T06:56:18;102938.70;;;-0.44;53.91
76808;BME280;65758;45.458;11.062;2023-02-11T06:58:46;102943.84;;;-0.40;54.40
76808;BME280;65758;45.458;11.062;2023-02-11T07:01:15;102940.39;;;-0.37;54.35
76808;BME280;65758;45.458;11.062;2023-02-11T07:03:43;102939.83;;;-0.34;54.63
76808;BME280;65758;45.458;11.062;2023-02-11T07:06:19;102939.02;;;-0.30;54.53
76808;BME280;65758;45.458;11.062;2023-02-11T07:08:47;102948.23;;;-0.26;54.43
76808;BME280;65758;45.458;11.062;2023-02-11T07:11:19;102944.35;;;-0.24;54.27
76808;BME280;65758;45.458;11.062;2023-02-11T07:13:46;102937.77;;;-0.22;54.53
76808;BME280;65758;45.458;11.062;2023-02-11T07:16:14;102942.91;;;-0.18;54.65
76808;BME280;65758;45.458;11.062;2023-02-11T07:18:43;102938.70;;;-0.12;54.59
76808;BME280;65758;45.458;11.062;2023-02-11T07:21:12;102942.02;;;-0.06;54.78
76808;BME280;65758;45.458;11.062;2023-02-11T07:23:40;102947.27;;;-0.01;54.27
76808;BME280;65758;45.458;11.062;2023-02-11T07:26:09;102946.61;;;0.03;54.02
76808;BME280;65758;45.458;11.062;2023-02-11T07:28:37;102944.41;;;0.10;54.13
76808;BME280;65758;45.458;11.062;2023-02-11T07:31:25;102945.77;;;0.16;54.54
76808;BME280;65758;45.458;11.062;2023-02-11T07:33:54;102946.55;;;0.25;54.48
76808;BME280;65758;45.458;11.062;2023-02-11T07:36:22;102947.52;;;0.37;54.74
76808;BME280;65758;45.458;11.062;2023-02-11T07:38:49;102953.03;;;0.45;53.77
76808;BME280;65758;45.458;11.062;2023-02-11T07:41:18;102951.67;;;0.52;53.44
76808;BME280;65758;45.458;11.062;2023-02-11T07:43:46;102957.06;;;0.60;53.22
76808;BME280;65758;45.458;11.062;2023-02-11T07:46:19;102961.15;;;0.68;53.07
76808;BME280;65758;45.458;11.062;2023-02-11T07:48:47;102960.15;;;0.79;53.03
76808;BME280;65758;45.458;11.062;2023-02-11T07:51:16;102950.31;;;0.91;53.50
76808;BME280;65758;45.458;11.062;2023-02-11T07:53:44;102957.40;;;1.05;53.07
76808;BME280;65758;45.458;11.062;2023-02-11T07:56:11;102959.29;;;1.18;53.51
76808;BME280;65758;45.458;11.062;2023-02-11T07:58:39;102954.98;;;1.32;53.46
76808;BME280;65758;45.458;11.062;2023-02-11T08:01:13;102951.10;;;1.46;52.75
76808;BME280;65758;45.458;11.062;2023-02-11T08:03:41;102954.44;;;1.59;52.48
76808;BME280;65758;45.458;11.062;2023-02-11T08:06:14;102951.82;;;1.70;52.22
76808;BME280;65758;45.458;11.062;2023-02-11T08:08:41;102953.44;;;1.82;51.91
76808;BME280;65758;45.458;11.062;2023-02-11T08:11:13;102955.20;;;1.94;51.64
76808;BME280;65758;45.458;11.062;2023-02-11T08:13:41;102953.58;;;2.06;51.88
76808;BME280;65758;45.458;11.062;2023-02-11T08:16:08;102959.06;;;2.16;51.64
76808;BME280;65758;45.458;11.062;2023-02-11T08:18:42;102952.73;;;2.26;51.38
76808;BME280;65758;45.458;11.062;2023-02-11T08:21:09;102951.78;;;2.36;51.72
76808;BME280;65758;45.458;11.062;2023-02-11T08:23:37;102955.46;;;2.46;51.77
76808;BME280;65758;45.458;11.062;2023-02-11T08:26:07;102957.91;;;2.56;52.06
76808;BME280;65758;45.458;11.062;2023-02-11T08:28:38;102957.77;;;2.65;51.89
76808;BME280;65758;45.458;11.062;2023-02-11T08:31:07;102955.38;;;2.72;51.39
76808;BME280;65758;45.458;11.062;2023-02-11T08:33:34;102949.89;;;2.80;51.23
76808;BME280;65758;45.458;11.062;2023-02-11T08:36:08;102949.92;;;2.86;51.35
76808;BME280;65758;45.458;11.062;2023-02-11T08:38:35;102951.88;;;2.93;51.44
76808;BME280;65758;45.458;11.062;2023-02-11T08:41:02;102953.67;;;3.00;51.88
76808;BME280;65758;45.458;11.062;2023-02-11T08:43:28;102952.85;;;3.06;52.29
76808;BME280;65758;45.458;11.062;2023-02-11T08:45:55;102953.33;;;3.13;51.60
76808;BME280;65758;45.458;11.062;2023-02-11T08:48:22;102955.66;;;3.20;51.05
76808;BME280;65758;45.458;11.062;2023-02-11T08:50:48;102959.83;;;3.26;51.77
76808;BME280;65758;45.458;11.062;2023-02-11T08:53:15;102958.98;;;3.36;51.93
76808;BME280;65758;45.458;11.062;2023-02-11T08:55:53;102964.54;;;3.48;51.31
76808;BME280;65758;45.458;11.062;2023-02-11T08:58:20;102966.23;;;3.60;51.23
76808;BME280;65758;45.458;11.062;2023-02-11T09:00:48;102971.35;;;3.70;51.19
76808;BME280;65758;45.458;11.062;2023-02-11T09:03:16;102977.86;;;3.80;51.03
76808;BME280;65758;45.458;11.062;2023-02-11T09:05:47;102978.11;;;3.91;52.50
76808;BME280;65758;45.458;11.062;2023-02-11T09:08:15;102981.66;;;4.02;52.12
76808;BME280;65758;45.458;11.062;2023-02-11T09:10:42;102976.12;;;4.12;51.27
76808;BME280;65758;45.458;11.062;2023-02-11T09:13:09;102973.64;;;4.19;50.74
76808;BME280;65758;45.458;11.062;2023-02-11T09:15:36;102973.02;;;4.24;50.48
76808;BME280;65758;45.458;11.062;2023-02-11T09:18:03;102981.30;;;4.31;50.37
76808;BME280;65758;45.458;11.062;2023-02-11T09:20:31;102974.19;;;4.38;49.50
76808;BME280;65758;45.458;11.062;2023-02-11T09:22:58;102975.77;;;4.47;50.24
76808;BME280;65758;45.458;11.062;2023-02-11T09:25:25;102980.78;;;4.56;49.86
76808;BME280;65758;45.458;11.062;2023-02-11T09:27:52;102977.41;;;4.61;49.94
76808;BME280;65758;45.458;11.062;2023-02-11T09:30:19;102976.90;;;4.71;50.35
76808;BME280;65758;45.458;11.062;2023-02-11T09:32:47;102978.88;;;4.84;50.37
76808;BME280;65758;45.458;11.062;2023-02-11T09:35:14;102978.91;;;4.95;51.50
76808;BME280;65758;45.458;11.062;2023-02-11T09:37:40;102969.55;;;5.03;50.59
76808;BME280;65758;45.458;11.062;2023-02-11T09:40:08;102965.30;;;5.14;51.10
76808;BME280;65758;45.458;11.062;2023-02-11T09:43:25;102966.55;;;5.22;49.45
76808;BME280;65758;45.458;11.062;2023-02-11T09:45:29;102966.68;;;5.29;49.24
76808;BME280;65758;45.458;11.062;2023-02-11T09:48:00;102967.38;;;5.35;48.62
76808;BME280;65758;45.458;11.062;2023-02-11T09:50:34;102973.92;;;5.43;48.90
76808;BME280;65758;45.458;11.062;2023-02-11T09:53:17;102974.14;;;5.48;48.95
76808;BME280;65758;45.458;11.062;2023-02-11T09:55:49;102979.08;;;5.53;49.83
76808;BME280;65758;45.458;11.062;2023-02-11T09:58:26;102977.48;;;5.57;49.35
76808;BME280;65758;45.458;11.062;2023-02-11T10:03:22;102982.79;;;5.64;50.33
76808;BME280;65758;45.458;11.062;2023-02-11T10:08:26;102986.04;;;5.64;49.58
76808;BME280;65758;45.458;11.062;2023-02-11T10:11:04;102979.05;;;5.62;48.78
76808;BME280;65758;45.458;11.062;2023-02-11T10:13:56;102977.98;;;5.63;49.28
76808;BME280;65758;45.458;11.062;2023-02-11T10:21:53;102976.41;;;5.96;49.46
76808;BME280;65758;45.458;11.062;2023-02-11T10:24:24;102976.90;;;6.05;49.07
76808;BME280;65758;45.458;11.062;2023-02-11T10:26:54;102977.18;;;6.07;48.62
76808;BME280;65758;45.458;11.062;2023-02-11T10:29:32;102972.39;;;6.10;49.41
76808;BME280;65758;45.458;11.062;2023-02-11T10:32:04;102975.14;;;6.13;48.81
76808;BME280;65758;45.458;11.062;2023-02-11T10:34:33;102973.12;;;6.18;48.83
76808;BME280;65758;45.458;11.062;2023-02-11T10:37:05;102967.27;;;6.20;49.21
76808;BME280;65758;45.458;11.062;2023-02-11T10:39:32;102962.25;;;6.25;48.52
76808;BME280;65758;45.458;11.062;2023-02-11T10:42:04;102971.61;;;6.28;48.67
76808;BME280;65758;45.458;11.062;2023-02-11T10:44:38;102975.98;;;6.30;48.90
76808;BME280;65758;45.458;11.062;2023-02-11T10:47:14;102977.74;;;6.28;48.66
76808;BME280;65758;45.458;11.062;2023-02-11T10:49:46;102972.80;;;6.23;49.07
76808;BME280;65758;45.458;11.062;2023-02-11T10:52:22;102973.82;;;6.18;49.11
76808;BME280;65758;45.458;11.062;2023-02-11T10:57:21;102954.31;;;6.10;48.56
76808;BME280;65758;45.458;11.062;2023-02-11T10:59:57;102943.52;;;6.07;49.10
76808;BME280;65758;45.458;11.062;2023-02-11T11:02:32;102943.44;;;6.10;48.20
76808;BME280;65758;45.458;11.062;2023-02-11T11:05:14;102938.73;;;6.21;47.95
76808;BME280;65758;45.458;11.062;2023-02-11T11:07:55;102938.58;;;6.32;47.66
76808;BME280;65758;45.458;11.062;2023-02-11T11:10:40;102935.48;;;6.46;47.79
76808;BME280;65758;45.458;11.062;2023-02-11T11:13:40;102933.00;;;6.62;49.61
76808;BME280;65758;45.458;11.062;2023-02-11T11:18:40;102923.55;;;6.99;47.15
76808;BME280;65758;45.458;11.062;2023-02-11T11:21:24;102918.59;;;7.18;47.40
76808;BME280;65758;45.458;11.062;2023-02-11T11:23:57;102908.69;;;7.41;46.57
76808;BME280;65758;45.458;11.062;2023-02-11T11:26:27;102895.38;;;7.59;46.65
76808;BME280;65758;45.458;11.062;2023-02-11T11:28:59;102890.38;;;7.78;45.76
76808;BME280;65758;45.458;11.062;2023-02-11T11:31:30;102882.51;;;7.95;45.96
76808;BME280;65758;45.458;11.062;2023-02-11T11:34:01;102878.74;;;8.06;45.07
76808;BME280;65758;45.458;11.062;2023-02-11T11:36:35;102879.61;;;8.08;46.16
76808;BME280;65758;45.458;11.062;2023-02-11T11:39:20;102877.88;;;8.07;46.01
76808;BME280;65758;45.458;11.062;2023-02-11T11:41:53;102880.90;;;8.03;45.55
76808;BME280;65758;45.458;11.062;2023-02-11T11:49:38;102878.54;;;7.82;45.33
76808;BME280;65758;45.458;11.062;2023-02-11T11:52:17;102875.98;;;7.75;45.47
76808;BME280;65758;45.458;11.062;2023-02-11T11:54:50;102875.10;;;7.67;45.30
76808;BME280;65758;45.458;11.062;2023-02-11T11:57:25;102873.83;;;7.66;47.12
76808;BME280;65758;45.458;11.062;2023-02-11T11:59:54;102873.20;;;7.68;45.96
76808;BME280;65758;45.458;11.062;2023-02-11T12:05:26;102869.80;;;7.80;45.02
76808;BME280;65758;45.458;11.062;2023-02-11T12:08:20;102866.52;;;7.91;45.58
76808;BME280;65758;45.458;11.062;2023-02-11T12:10:55;102861.86;;;8.04;44.85
76808;BME280;65758;45.458;11.062;2023-02-11T12:16:24;102860.48;;;8.24;45.02
76808;BME280;65758;45.458;11.062;2023-02-11T12:38:13;102830.38;;;8.13;40.46
76808;BME280;65758;45.458;11.062;2023-02-11T12:41:00;102829.11;;;8.13;41.51
76808;BME280;65758;45.458;11.062;2023-02-11T12:43:36;102827.83;;;8.16;40.60
76808;BME280;65758;45.458;11.062;2023-02-11T12:59:37;102799.38;;;8.60;40.86
76808;BME280;65758;45.458;11.062;2023-02-11T13:02:51;102796.10;;;8.72;41.71
76808;BME280;65758;45.458;11.062;2023-02-11T13:05:32;102787.27;;;8.85;40.01
76808;BME280;65758;45.458;11.062;2023-02-11T13:08:34;102780.39;;;8.91;39.75
76808;BME280;65758;45.458;11.062;2023-02-11T13:11:08;102783.92;;;8.92;39.23
76808;BME280;65758;45.458;11.062;2023-02-11T13:13:48;102780.86;;;8.90;39.96
76808;BME280;65758;45.458;11.062;2023-02-11T13:21:32;102781.73;;;8.91;42.36
76808;BME280;65758;45.458;11.062;2023-02-11T13:24:24;102780.77;;;8.91;44.55
76808;BME280;65758;45.458;11.062;2023-02-11T13:27:10;102775.45;;;8.93;45.18
76808;BME280;65758;45.458;11.062;2023-02-11T13:35:37;102765.35;;;9.07;45.34
76808;BME280;65758;45.458;11.062;2023-02-11T13:38:20;102757.76;;;9.12;44.57
76808;BME280;65758;45.458;11.062;2023-02-11T13:44:12;102754.35;;;9.23;44.37
76808;BME280;65758;45.458;11.062;2023-02-11T13:51:57;102747.10;;;9.40;44.63
76808;BME280;65758;45.458;11.062;2023-02-11T13:54:46;102747.62;;;9.45;44.06
76808;BME280;65758;45.458;11.062;2023-02-11T13:59:59;102741.84;;;9.54;43.03
76808;BME280;65758;45.458;11.062;2023-02-11T14:02:34;102737.03;;;9.57;42.18
76808;BME280;65758;45.458;11.062;2023-02-11T14:05:28;102733.64;;;9.59;42.66
76808;BME280;65758;45.458;11.062;2023-02-11T14:08:17;102728.41;;;9.57;41.68
76808;BME280;65758;45.458;11.062;2023-02-11T14:11:08;102730.08;;;9.58;42.43
76808;BME280;65758;45.458;11.062;2023-02-11T14:16:16;102717.85;;;9.62;43.76
76808;BME280;65758;45.458;11.062;2023-02-11T14:19:02;102716.05;;;9.67;43.31
76808;BME280;65758;45.458;11.062;2023-02-11T14:21:33;102715.73;;;9.71;44.49
76808;BME280;65758;45.458;11.062;2023-02-11T14:26:53;102710.21;;;9.73;45.05
76808;BME280;65758;45.458;11.062;2023-02-11T14:35:34;102700.92;;;9.84;44.34
76808;BME280;65758;45.458;11.062;2023-02-11T14:41:16;102693.11;;;9.86;44.80
76808;BME280;65758;45.458;11.062;2023-02-11T14:43:54;102688.46;;;9.86;45.97
76808;BME280;65758;45.458;11.062;2023-02-11T14:46:24;102689.39;;;9.88;46.11
76808;BME280;65758;45.458;11.062;2023-02-11T14:48:56;102686.02;;;9.88;45.08
76808;BME280;65758;45.458;11.062;2023-02-11T14:51:30;102680.63;;;9.90;44.31
76808;BME280;65758;45.458;11.062;2023-02-11T14:54:19;102678.82;;;9.89;44.85
76808;BME280;65758;45.458;11.062;2023-02-11T14:57:23;102679.23;;;9.88;43.34
76808;BME280;65758;45.458;11.062;2023-02-11T15:00:02;102676.76;;;9.84;42.26
76808;BME280;65758;45.458;11.062;2023-02-11T15:02:35;102671.19;;;9.80;42.48
76808;BME280;65758;45.458;11.062;2023-02-11T15:05:20;102669.23;;;9.76;42.64
76808;BME280;65758;45.458;11.062;2023-02-11T15:08:00;102664.90;;;9.74;45.61
76808;BME280;65758;45.458;11.062;2023-02-11T15:10:32;102664.95;;;9.72;44.45
76808;BME280;65758;45.458;11.062;2023-02-11T15:13:01;102668.02;;;9.71;45.53
76808;BME280;65758;45.458;11.062;2023-02-11T15:15:30;102667.79;;;9.68;45.67
76808;BME280;65758;45.458;11.062;2023-02-11T15:18:00;102669.75;;;9.67;44.94
76808;BME280;65758;45.458;11.062;2023-02-11T15:20:31;102665.38;;;9.64;45.62
76808;BME280;65758;45.458;11.062;2023-02-11T15:23:06;102662.83;;;9.60;44.69
76808;BME280;65758;45.458;11.062;2023-02-11T15:25:42;102654.59;;;9.57;44.37
76808;BME280;65758;45.458;11.062;2023-02-11T15:28:21;102652.60;;;9.54;43.29
76808;BME280;65758;45.458;11.062;2023-02-11T15:30:55;102651.87;;;9.49;43.78